Time;durP1;ratioP1;P1;durP2;ratioP2;P2;SDS_P1;SDS_P2;PMS_P1;PMS_P2;Temp;Humidity;BMP_temperature;BMP_pressure;BME280_temperature;BME280_humidity;BME280_pressure;Samples;Min_cycle;Max_cycle;Signal;HPM_P1;HPM_P2
2022/09/12 00:01:09;;;;;;;18.90;11.73;;;;;;;14.76;100.00;101842.16;7381864;19;20118;-72
2022/09/12 00:03:42;;;;;;;20.02;12.35;;;;;;;14.76;100.00;101843.91;7381930;19;20064;-72
2022/09/12 00:06:14;;;;;;;18.60;11.68;;;;;;;14.73;100.00;101837.72;7381239;19;20039;-72
2022/09/12 00:08:50;;;;;;;19.63;12.30;;;;;;;14.76;100.00;101841.25;7378973;19;20018;-72
2022/09/12 00:11:20;;;;;;;17.88;11.93;;;;;;;14.74;100.00;101843.88;7380076;19;20011;-72
2022/09/12 00:13:53;;;;;;;20.13;12.07;;;;;;;14.78;100.00;101845.69;7380594;19;20010;-72
2022/09/12 00:16:25;;;;;;;20.57;12.70;;;;;;;14.79;100.00;101842.19;7380390;19;20606;-72
2022/09/12 00:18:55;;;;;;;19.83;11.73;;;;;;;14.78;100.00;101844.81;7382100;19;20259;-72
2022/09/12 00:21:25;;;;;;;19.52;11.32;;;;;;;14.75;100.00;101843.00;7382224;19;20066;-76
2022/09/12 00:23:55;;;;;;;19.10;11.77;;;;;;;14.69;100.00;101838.53;7380730;19;20021;-73
2022/09/12 00:26:25;;;;;;;19.95;11.02;;;;;;;14.66;100.00;101838.50;7379727;19;20485;-74
2022/09/12 00:28:57;;;;;;;16.27;9.98;;;;;;;14.64;100.00;101839.34;7383965;19;20029;-72
2022/09/12 00:31:28;;;;;;;18.42;11.82;;;;;;;14.62;100.00;101836.69;7380290;19;20010;-72
2022/09/12 00:34:01;;;;;;;17.13;10.48;;;;;;;14.62;100.00;101836.69;7381155;19;20017;-72
2022/09/12 00:36:32;;;;;;;21.88;12.25;;;;;;;14.68;100.00;101834.13;7380931;19;20009;-72
2022/09/12 00:39:02;;;;;;;20.77;11.70;;;;;;;14.67;100.00;101836.75;7378227;19;20038;-72
2022/09/12 00:41:34;;;;;;;22.30;11.95;;;;;;;14.75;100.00;101831.56;7380021;19;20015;-72
2022/09/12 00:44:34;;;;;;;19.45;11.18;;;;;;;14.76;100.00;101830.69;7380302;19;20010;-72
2022/09/12 00:47:12;;;;;;;20.67;11.00;;;;;;;14.80;100.00;101822.81;7378979;19;20014;-72
2022/09/12 00:49:47;;;;;;;17.20;11.35;;;;;;;14.83;100.00;101822.88;7380268;19;20753;-72
2022/09/12 00:52:20;;;;;;;18.83;10.93;;;;;;;14.81;100.00;101819.31;7378738;19;20326;-72
2022/09/12 00:54:55;;;;;;;20.60;11.77;;;;;;;14.89;100.00;101824.69;7378853;19;20050;-72
2022/09/12 00:57:31;;;;;;;19.65;11.43;;;;;;;14.94;100.00;101812.41;7380921;19;20014;-72
2022/09/12 01:00:06;;;;;;;18.02;11.25;;;;;;;14.96;100.00;101808.03;7380580;19;20006;-72
2022/09/12 01:02:38;;;;;;;22.70;11.88;;;;;;;14.97;100.00;101805.41;7380974;19;20014;-72
2022/09/12 01:05:09;;;;;;;17.63;10.45;;;;;;;15.03;100.00;101810.75;7377851;19;20334;-72
2022/09/12 01:07:40;;;;;;;19.92;11.88;;;;;;;15.09;100.00;101807.31;7379390;19;20006;-72
2022/09/12 01:10:11;;;;;;;20.52;11.90;;;;;;;15.09;100.00;101809.06;7379332;19;20011;-72
2022/09/12 01:12:43;;;;;;;18.77;11.07;;;;;;;15.08;100.00;101805.53;7377087;19;20021;-72
2022/09/12 01:15:14;;;;;;;20.15;11.13;;;;;;;15.07;100.00;101806.41;7378877;19;20013;-72
2022/09/12 01:17:56;;;;;;;21.20;12.88;;;;;;;15.10;100.00;101806.44;7379537;19;20153;-72
2022/09/12 01:20:46;;;;;;;22.67;12.88;;;;;;;15.10;100.00;101795.88;7379729;19;20011;-72
2022/09/12 01:23:46;;;;;;;18.05;9.90;;;;;;;15.11;100.00;101807.31;7380975;19;20014;-72
2022/09/12 01:26:37;;;;;;;22.25;11.85;;;;;;;15.11;100.00;101799.38;7378829;19;20849;-72
2022/09/12 01:29:24;;;;;;;18.75;11.88;;;;;;;15.10;100.00;101800.25;7376998;19;20064;-72
2022/09/12 01:32:06;;;;;;;20.08;11.18;;;;;;;15.09;100.00;101796.72;7377079;19;20021;-72
2022/09/12 01:34:46;;;;;;;19.33;10.48;;;;;;;15.05;100.00;101790.53;7379156;19;20582;-72
2022/09/12 01:37:21;;;;;;;22.05;11.52;;;;;;;15.03;100.00;101794.03;7378401;19;20086;-72
2022/09/12 01:40:00;;;;;;;18.23;10.75;;;;;;;15.01;100.00;101794.00;7376877;19;20006;-72
2022/09/12 01:42:35;;;;;;;22.10;12.55;;;;;;;14.99;100.00;101786.94;7377391;19;20392;-72
2022/09/12 01:45:13;;;;;;;21.90;11.55;;;;;;;14.98;100.00;101795.72;7377749;19;20006;-72
2022/09/12 01:47:51;;;;;;;19.55;11.90;;;;;;;14.96;100.00;101781.63;7372118;19;20469;-73
2022/09/12 01:50:24;;;;;;;19.50;12.65;;;;;;;14.95;100.00;101780.75;7378440;19;20565;-76
2022/09/12 01:52:58;;;;;;;23.10;13.15;;;;;;;14.92;100.00;101775.44;7375428;19;20010;-78
2022/09/12 01:55:32;;;;;;;21.45;12.75;;;;;;;14.93;100.00;101773.66;7376995;19;20127;-78
2022/09/12 01:58:07;;;;;;;23.80;13.35;;;;;;;14.92;100.00;101763.97;7377406;19;20359;-76
2022/09/12 02:00:44;;;;;;;23.00;12.10;;;;;;;14.92;100.00;101766.63;7376568;19;20015;-72
2022/09/12 02:03:20;;;;;;;24.92;13.75;;;;;;;14.92;100.00;101763.97;7380079;19;20018;-72
2022/09/12 02:05:56;;;;;;;27.38;14.15;;;;;;;14.93;100.00;101758.72;7385726;19;20019;-72
2022/09/12 02:08:30;;;;;;;25.08;14.35;;;;;;;14.90;100.00;101766.59;7383330;19;20035;-72
2022/09/12 02:11:06;;;;;;;24.45;13.05;;;;;;;14.87;100.00;101756.00;7384756;19;20006;-71
2022/09/12 02:13:39;;;;;;;24.73;13.18;;;;;;;14.85;100.00;101756.84;7383640;19;20014;-71
2022/09/12 02:16:12;;;;;;;25.27;13.77;;;;;;;14.88;100.00;101759.53;7385001;19;20102;-72
2022/09/12 02:18:48;;;;;;;27.65;14.75;;;;;;;14.85;100.00;101752.47;7385219;19;20034;-72
2022/09/12 02:21:21;;;;;;;25.85;13.48;;;;;;;14.82;100.00;101751.53;7384526;19;20018;-72
2022/09/12 02:23:58;;;;;;;24.88;14.45;;;;;;;14.81;100.00;101748.00;7385561;19;20029;-71
2022/09/12 02:26:32;;;;;;;24.92;13.88;;;;;;;14.79;100.00;101744.47;7385107;19;20021;-72
2022/09/12 02:29:02;;;;;;;23.15;12.68;;;;;;;14.77;100.00;101730.38;7382229;19;20014;-72
2022/09/12 02:31:38;;;;;;;25.58;15.07;;;;;;;14.78;100.00;101739.19;7385851;19;20018;-72
2022/09/12 02:34:28;;;;;;;24.73;13.07;;;;;;;14.78;100.00;101732.13;7384413;19;20033;-76
2022/09/12 02:37:07;;;;;;;23.75;12.95;;;;;;;14.77;100.00;101732.13;7385889;19;20782;-76
2022/09/12 02:39:37;;;;;;;28.58;13.80;;;;;;;14.74;100.00;101732.97;7382480;19;20026;-76
2022/09/12 02:42:13;;;;;;;26.98;13.13;;;;;;;14.73;100.00;101736.50;7385292;19;20026;-71
2022/09/12 02:44:44;;;;;;;25.40;13.75;;;;;;;14.76;100.00;101733.00;7383858;19;20014;-77
2022/09/12 02:47:20;;;;;;;26.60;13.98;;;;;;;14.77;100.00;101735.66;7382315;19;20011;-77
2022/09/12 02:49:54;;;;;;;24.02;12.85;;;;;;;14.76;100.00;101730.34;7385841;19;20018;-77
2022/09/12 02:52:24;;;;;;;27.08;15.18;;;;;;;14.77;100.00;101727.72;7380366;19;20581;-76
2022/09/12 02:54:54;;;;;;;26.80;14.48;;;;;;;14.82;100.00;101730.41;7384121;19;20007;-76
2022/09/12 02:57:23;;;;;;;26.55;14.73;;;;;;;14.85;100.00;101728.69;7384410;19;20010;-76
2022/09/12 02:59:57;;;;;;;28.23;14.57;;;;;;;14.86;100.00;101734.84;7384120;19;20011;-76
2022/09/12 03:02:33;;;;;;;29.02;15.55;;;;;;;14.89;100.00;101726.97;7382463;19;20010;-76
2022/09/12 03:05:28;;;;;;;28.35;14.27;;;;;;;14.88;100.00;101718.16;7382517;19;20007;-76
2022/09/12 03:08:36;;;;;;;27.05;14.07;;;;;;;14.90;100.00;101712.88;7383847;19;20421;-72
2022/09/12 03:11:27;;;;;;;27.90;14.13;;;;;;;14.94;100.00;101706.75;7381890;19;20010;-71
2022/09/12 03:14:08;;;;;;;25.50;13.50;;;;;;;14.97;100.00;101701.50;7383945;19;20015;-72
2022/09/12 03:16:46;;;;;;;29.65;15.90;;;;;;;14.97;100.00;101705.03;7383284;19;20014;-72
2022/09/12 03:19:23;;;;;;;30.52;14.65;;;;;;;14.98;100.00;101700.63;7382518;19;20027;-72
2022/09/12 03:22:07;;;;;;;26.17;13.25;;;;;;;14.99;100.00;101699.75;7384701;19;20124;-72
2022/09/12 03:24:40;;;;;;;26.38;12.32;;;;;;;14.96;100.00;101699.75;7381621;19;20017;-72
2022/09/12 03:27:18;;;;;;;28.50;14.20;;;;;;;14.96;100.00;101699.75;7381642;19;20027;-72
2022/09/12 03:29:50;;;;;;;26.67;13.40;;;;;;;14.96;100.00;101699.75;7384747;19;20498;-72
2022/09/12 03:32:19;;;;;;;26.02;14.50;;;;;;;14.95;100.00;101695.31;7379045;19;20025;-73
2022/09/12 03:34:49;;;;;;;24.63;13.30;;;;;;;14.95;100.00;101695.31;7381282;19;20023;-72
2022/09/12 03:37:21;;;;;;;26.90;13.95;;;;;;;14.93;100.00;101699.72;7381286;19;20074;-72
2022/09/12 03:39:51;;;;;;;27.50;14.50;;;;;;;14.92;100.00;101698.81;7381952;19;20014;-72
2022/09/12 03:42:20;;;;;;;27.40;13.95;;;;;;;14.92;100.00;101701.47;7380096;19;20015;-72
2022/09/12 03:44:50;;;;;;;25.55;13.43;;;;;;;14.89;100.00;101700.56;7382729;19;20021;-72
2022/09/12 03:47:20;;;;;;;29.35;15.07;;;;;;;14.89;100.00;101697.91;7379922;19;20073;-72
2022/09/12 03:49:51;;;;;;;26.38;13.32;;;;;;;14.85;100.00;101694.34;7377565;19;20007;-72
2022/09/12 03:52:23;;;;;;;24.48;11.95;;;;;;;14.85;100.00;101696.13;7377017;19;20019;-72
2022/09/12 03:54:53;;;;;;;28.17;15.15;;;;;;;14.86;100.00;101692.59;7380377;19;20023;-72
2022/09/12 03:57:24;;;;;;;25.80;15.15;;;;;;;14.83;100.00;101701.38;7381706;19;20014;-72
2022/09/12 03:59:53;;;;;;;24.23;14.02;;;;;;;14.81;100.00;101694.31;7383345;19;20146;-72
2022/09/12 04:02:23;;;;;;;25.58;13.75;;;;;;;14.80;100.00;101695.19;7383529;19;20006;-72
2022/09/12 04:04:53;;;;;;;27.35;13.93;;;;;;;14.78;100.00;101687.25;7382605;19;20010;-72
2022/09/12 04:07:26;;;;;;;25.20;13.98;;;;;;;14.77;100.00;101692.50;7383909;19;20022;-72
2022/09/12 04:09:55;;;;;;;27.73;14.48;;;;;;;14.73;100.00;101692.50;7379668;19;20011;-72
2022/09/12 04:12:25;;;;;;;24.83;14.32;;;;;;;14.71;100.00;101686.31;7382312;19;20014;-72
2022/09/12 04:14:55;;;;;;;29.65;14.55;;;;;;;14.68;100.00;101688.91;7382554;19;20034;-73
2022/09/12 04:17:25;;;;;;;25.77;14.68;;;;;;;14.67;100.00;101689.78;7383560;19;20082;-72
2022/09/12 04:19:54;;;;;;;26.58;14.90;;;;;;;14.65;100.00;101688.00;7383057;19;20038;-72
2022/09/12 04:22:28;;;;;;;26.55;13.45;;;;;;;14.64;100.00;101681.84;7380706;19;20003;-72
2022/09/12 04:24:59;;;;;;;27.38;14.32;;;;;;;14.61;100.00;101689.72;7381293;19;20018;-73
2022/09/12 04:27:29;;;;;;;29.38;14.27;;;;;;;14.60;100.00;101687.06;7379843;19;20018;-72
2022/09/12 04:30:01;;;;;;;24.45;12.57;;;;;;;14.56;100.00;101691.44;7376547;19;20006;-72
2022/09/12 04:32:32;;;;;;;26.27;13.02;;;;;;;14.53;100.00;101686.16;7377758;19;20018;-72
2022/09/12 04:35:02;;;;;;;27.48;14.68;;;;;;;14.52;100.00;101694.06;7379280;19;20033;-72
2022/09/12 04:37:34;;;;;;;26.60;13.90;;;;;;;14.47;100.00;101690.47;7382175;19;20027;-72
2022/09/12 04:40:04;;;;;;;24.13;13.75;;;;;;;14.44;100.00;101691.31;7378468;19;20034;-72
2022/09/12 04:42:34;;;;;;;28.75;14.60;;;;;;;14.42;100.00;101698.34;7383098;19;20526;-72
2022/09/12 04:45:05;;;;;;;25.83;12.85;;;;;;;14.37;100.00;101690.34;7380007;19;20003;-72
2022/09/12 04:47:34;;;;;;;25.10;14.63;;;;;;;14.35;100.00;101693.84;7380761;19;20014;-72
2022/09/12 04:50:04;;;;;;;25.13;13.45;;;;;;;14.29;100.00;101691.13;7378704;19;20017;-72
2022/09/12 04:52:36;;;;;;;30.13;14.20;;;;;;;14.25;100.00;101692.84;7375018;19;20010;-72
2022/09/12 04:55:07;;;;;;;26.85;14.32;;;;;;;14.23;100.00;101696.31;7378699;19;20409;-73
2022/09/12 04:57:37;;;;;;;26.00;12.85;;;;;;;14.16;100.00;101703.28;7377948;19;20014;-72
2022/09/12 05:00:12;;;;;;;25.27;13.80;;;;;;;14.08;100.00;101697.91;7379711;19;20465;-72
2022/09/12 05:02:42;;;;;;;24.55;14.35;;;;;;;14.02;100.00;101692.56;7377751;19;20469;-77
2022/09/12 05:05:12;;;;;;;23.70;12.82;;;;;;;13.96;100.00;101696.88;7379815;19;20014;-77
2022/09/12 05:07:44;;;;;;;28.35;14.27;;;;;;;13.92;100.00;101700.31;7378301;19;20103;-76
2022/09/12 05:10:14;;;;;;;26.20;13.68;;;;;;;13.89;100.00;101690.63;7378627;19;20006;-77
2022/09/12 05:12:44;;;;;;;30.23;15.40;;;;;;;13.90;100.00;101691.50;7376771;19;20017;-77
2022/09/12 05:15:13;;;;;;;32.67;16.02;;;;;;;13.89;100.00;101695.00;7380871;19;20017;-78
2022/09/12 05:17:43;;;;;;;27.80;14.60;;;;;;;13.89;100.00;101695.91;7379000;19;20010;-73
2022/09/12 05:20:14;;;;;;;31.15;14.85;;;;;;;13.87;100.00;101692.34;7379178;19;20569;-73
2022/09/12 05:22:46;;;;;;;30.52;16.13;;;;;;;13.86;100.00;101685.31;7380029;19;20017;-73
2022/09/12 05:25:16;;;;;;;27.63;14.18;;;;;;;13.84;100.00;101687.03;7377330;19;20013;-73
2022/09/12 05:27:45;;;;;;;31.25;14.77;;;;;;;13.82;100.00;101672.94;7379782;19;20479;-73
2022/09/12 05:30:19;;;;;;;32.42;15.95;;;;;;;13.84;100.00;101676.50;7378341;19;20028;-73
2022/09/12 05:32:48;;;;;;;30.00;15.27;;;;;;;13.82;100.00;101675.59;7379822;19;20199;-73
2022/09/12 05:35:18;;;;;;;30.17;15.55;;;;;;;13.85;100.00;101672.09;7376443;19;20485;-73
2022/09/12 05:37:51;;;;;;;30.85;15.63;;;;;;;13.85;100.00;101665.09;7378334;19;20364;-73
2022/09/12 05:40:21;;;;;;;31.45;16.30;;;;;;;13.88;100.00;101667.75;7379088;19;20481;-73
2022/09/12 05:42:50;;;;;;;33.03;15.10;;;;;;;13.89;100.00;101664.25;7379098;19;20010;-73
2022/09/12 05:45:20;;;;;;;31.67;16.17;;;;;;;13.90;100.00;101666.03;7379411;19;20018;-73
2022/09/12 05:47:50;;;;;;;33.40;16.60;;;;;;;13.90;100.00;101668.66;7378175;19;20017;-74
2022/09/12 05:50:20;;;;;;;35.03;17.20;;;;;;;13.91;100.00;101667.78;7377535;19;20474;-73
2022/09/12 05:52:53;;;;;;;33.67;16.50;;;;;;;13.92;100.00;101672.22;7374246;19;20015;-74
2022/09/12 05:55:24;;;;;;;35.80;18.00;;;;;;;13.91;100.00;101678.34;7378874;19;20021;-73
2022/09/12 05:57:55;;;;;;;34.28;16.63;;;;;;;13.89;100.00;101680.06;7379935;19;20090;-73
2022/09/12 06:00:25;;;;;;;36.97;17.55;;;;;;;13.89;100.00;101679.19;7379194;19;20021;-72
2022/09/12 06:03:00;;;;;;;35.22;17.25;;;;;;;13.93;100.00;101681.88;7377489;19;20082;-73
2022/09/12 06:05:32;;;;;;;38.40;16.65;;;;;;;14.02;100.00;101682.00;7376349;19;20010;-72
2022/09/12 06:08:04;;;;;;;36.45;17.27;;;;;;;14.11;100.00;101693.53;7379235;19;20025;-72
2022/09/12 06:10:34;;;;;;;35.35;19.60;;;;;;;14.22;100.00;101684.00;7376134;19;20017;-73
2022/09/12 06:13:03;;;;;;;36.80;17.20;;;;;;;14.34;100.00;101682.38;7377769;19;20010;-73
2022/09/12 06:15:34;;;;;;;38.80;18.65;;;;;;;14.41;100.00;101680.72;7379181;19;20007;-74
2022/09/12 06:18:04;;;;;;;49.80;22.33;;;;;;;14.56;100.00;101677.38;7378236;19;20038;-74
2022/09/12 06:20:34;;;;;;;44.67;22.10;;;;;;;14.66;100.00;101668.66;7377921;19;20041;-74
2022/09/12 06:23:06;;;;;;;42.35;18.85;;;;;;;14.76;100.00;101667.88;7377569;19;20075;-73
2022/09/12 06:25:36;;;;;;;35.92;19.95;;;;;;;14.84;100.00;101658.25;7375106;19;20088;-72
2022/09/12 06:28:07;;;;;;;40.17;20.55;;;;;;;14.94;100.00;101659.22;7377933;19;20015;-73
2022/09/12 06:30:36;;;;;;;42.42;18.92;;;;;;;15.05;100.00;101660.19;7376373;19;20007;-72
2022/09/12 06:33:06;;;;;;;41.58;21.80;;;;;;;15.12;100.00;101654.09;7377766;19;20082;-72
2022/09/12 06:35:37;;;;;;;39.55;19.90;;;;;;;15.17;100.00;101665.56;7377914;19;20014;-72
2022/09/12 06:38:10;;;;;;;39.42;20.55;;;;;;;15.27;100.00;101670.06;7375859;19;20019;-72
2022/09/12 06:40:43;;;;;;;39.55;21.02;;;;;;;15.36;100.00;101664.84;7377932;19;20021;-72
2022/09/12 06:43:15;;;;;;;41.53;22.45;;;;;;;15.43;100.00;101656.94;7377361;19;20007;-72
2022/09/12 06:45:50;;;;;;;42.03;21.77;;;;;;;15.53;100.00;101662.28;7376948;19;20360;-74
2022/09/12 06:48:20;;;;;;;43.33;23.33;;;;;;;15.61;100.00;101665.88;7377209;19;20010;-71
2022/09/12 06:50:59;;;;;;;40.22;20.52;;;;;;;15.80;100.00;101668.63;7379298;19;20466;-73
2022/09/12 06:53:32;;;;;;;40.47;20.30;;;;;;;15.97;100.00;101662.53;7379433;19;20082;-72
2022/09/12 06:56:03;;;;;;;38.60;20.45;;;;;;;16.16;100.00;101673.19;7383742;19;20021;-72
2022/09/12 06:58:33;;;;;;;45.47;22.48;;;;;;;16.28;100.00;101670.59;7383533;19;20006;-73
2022/09/12 07:01:04;;;;;;;47.85;21.40;;;;;;;16.41;100.00;101672.38;7384206;19;20019;-72
2022/09/12 07:03:35;;;;;;;40.38;20.42;;;;;;;16.67;100.00;101677.75;7381987;19;20018;-72
2022/09/12 07:06:06;;;;;;;39.50;21.35;;;;;;;16.78;100.00;101669.81;7384903;19;20493;-73
2022/09/12 07:08:39;;;;;;;39.20;20.63;;;;;;;16.83;100.00;101671.56;7381948;19;20017;-72
2022/09/12 07:11:14;;;;;;;42.63;21.00;;;;;;;17.07;100.00;101683.97;7381877;19;20022;-73
2022/09/12 07:13:45;;;;;;;43.33;21.60;;;;;;;17.17;100.00;101668.94;7383649;19;20010;-77
2022/09/12 07:16:16;;;;;;;39.83;20.60;;;;;;;17.18;100.00;101668.94;7383188;19;20090;-78
2022/09/12 07:18:52;;;;;;;41.13;20.73;;;;;;;17.41;100.00;101668.91;7383093;19;20585;-77
2022/09/12 07:21:22;;;;;;;33.25;19.35;;;;;;;17.66;100.00;101675.06;7380431;19;20015;-77
2022/09/12 07:23:56;;;;;;;41.28;21.50;;;;;;;17.81;100.00;101675.00;7382961;19;20003;-77
2022/09/12 07:26:28;;;;;;;34.83;19.08;;;;;;;18.05;100.00;101674.03;7384708;19;20050;-77
2022/09/12 07:29:00;;;;;;;41.35;19.88;;;;;;;18.29;100.00;101671.25;7382476;19;20017;-77
2022/09/12 07:31:50;;;;;;;36.53;18.70;;;;;;;18.32;100.00;101678.31;7377780;19;20014;-76
2022/09/12 07:34:19;;;;;;;34.30;18.42;;;;;;;18.59;100.00;101671.97;7382773;19;20025;-77
2022/09/12 07:36:49;;;;;;;35.08;18.88;;;;;;;18.96;100.00;101667.28;7382157;19;20025;-76
2022/09/12 07:39:21;;;;;;;33.75;17.52;;;;;;;19.25;100.00;101670.56;7383148;19;20308;-76
2022/09/12 07:41:51;;;;;;;36.43;18.60;;;;;;;19.25;100.00;101675.88;7380692;19;20088;-73
2022/09/12 07:44:21;;;;;;;33.60;17.27;;;;;;;19.13;100.00;101665.34;7382274;19;20419;-73
2022/09/12 07:46:52;;;;;;;31.73;18.15;;;;;;;19.00;100.00;101666.34;7382807;19;20018;-72
2022/09/12 07:49:21;;;;;;;34.25;17.50;;;;;;;19.14;100.00;101680.41;7382123;19;20044;-72
2022/09/12 07:51:52;;;;;;;33.25;17.83;;;;;;;19.38;100.00;101678.44;7381313;19;20019;-73
2022/09/12 07:54:25;;;;;;;34.00;18.77;;;;;;;19.42;100.00;101677.50;7376272;19;20011;-72
2022/09/12 07:56:55;;;;;;;;;;;;;;;19.41;100.00;101673.09;7383188;19;20292;-73
2022/09/12 07:59:26;;;;;;;33.28;18.20;;;;;;;19.63;100.00;101677.31;7382143;19;19919;-73
2022/09/12 08:02:15;;;;;;;28.92;17.02;;;;;;;19.82;100.00;101670.84;7378575;19;20014;-73
2022/09/12 08:04:47;;;;;;;31.45;17.30;;;;;;;19.73;100.00;101671.00;7380940;19;20010;-73
2022/09/12 08:07:18;;;;;;;34.65;17.83;;;;;;;19.99;100.00;101675.97;7381319;19;20025;-74
2022/09/12 08:09:52;;;;;;;33.63;17.27;;;;;;;20.22;100.00;101673.03;7379547;19;20025;-73
2022/09/12 08:12:21;;;;;;;32.53;16.52;;;;;;;20.34;100.00;101672.88;7382550;19;20030;-73
2022/09/12 08:14:51;;;;;;;30.63;16.33;;;;;;;20.35;100.00;101671.97;7379739;19;20367;-72
2022/09/12 08:17:21;;;;;;;30.73;14.95;;;;;;;20.71;100.00;101673.25;7379104;19;20026;-72
2022/09/12 08:19:51;;;;;;;31.30;16.05;;;;;;;20.64;100.00;101673.34;7382294;19;20011;-73
2022/09/12 08:22:21;;;;;;;24.25;13.50;;;;;;;21.01;100.00;101670.97;7382311;19;20045;-72
2022/09/12 08:24:53;;;;;;;32.35;12.43;;;;;;;21.17;100.00;101667.13;7380626;19;20354;-72
2022/09/12 08:27:24;;;;;;;18.93;10.50;;;;;;;21.19;100.00;101663.53;7380433;19;20014;-72
2022/09/12 08:29:54;;;;;;;18.25;11.10;;;;;;;21.39;100.00;101668.53;7381914;19;20011;-72
2022/09/12 08:32:24;;;;;;;20.83;11.20;;;;;;;20.97;100.00;101675.47;7380699;19;20013;-72
2022/09/12 08:34:54;;;;;;;23.33;12.15;;;;;;;20.81;100.00;101669.50;7381282;19;20030;-76
2022/09/12 08:37:23;;;;;;;21.45;10.35;;;;;;;20.82;100.00;101675.72;7380679;19;20026;-76
2022/09/12 08:39:56;;;;;;;18.52;10.38;;;;;;;20.81;100.00;101669.50;7381767;19;20019;-77
2022/09/12 08:42:48;;;;;;;17.53;11.37;;;;;;;20.82;100.00;101676.59;7381033;19;20044;-77
2022/09/12 08:45:24;;;;;;;19.13;9.45;;;;;;;21.22;100.00;101657.28;7382092;19;20097;-77
2022/09/12 08:47:54;;;;;;;17.48;9.00;;;;;;;21.17;100.00;101661.78;7382217;19;20332;-76
2022/09/12 08:50:24;;;;;;;17.10;9.05;;;;;;;21.14;100.00;101668.06;7380593;19;20031;-76
2022/09/12 08:52:58;;;;;;;16.15;8.23;;;;;;;21.37;100.00;101664.16;7376760;19;20024;-76
2022/09/12 08:55:42;;;;;;;14.77;8.57;;;;;;;21.41;100.00;101660.50;7380652;19;20006;-75
2022/09/12 08:58:16;;;;;;;13.30;7.60;;;;;;;21.56;100.00;101665.56;7379633;19;20022;-75
2022/09/12 09:00:50;;;;;;;;;;;;;;;21.46;100.00;101656.84;7381490;19;20019;-74
2022/09/12 09:03:49;;;;;;;15.32;9.20;;;;;;;21.71;100.00;101665.28;7380771;19;20253;-75
2022/09/12 09:06:33;;;;;;;14.15;7.63;;;;;;;21.98;100.00;101663.81;7379106;19;20602;-77
2022/09/12 09:09:11;;;;;;;13.40;7.72;;;;;;;22.30;100.00;101663.16;7379960;19;20079;-76
2022/09/12 09:11:57;;;;;;;16.13;8.73;;;;;;;22.05;100.00;101657.44;7376969;19;20018;-75
2022/09/12 09:14:52;;;;;;;13.80;7.63;;;;;;;22.10;100.00;101654.69;7376170;19;20493;-76
2022/09/12 09:17:27;;;;;;;13.90;7.85;;;;;;;22.13;100.00;101651.94;7380864;19;20442;-71
2022/09/12 09:20:04;;;;;;;12.15;6.88;;;;;;;22.43;100.00;101645.03;7381253;19;20467;-73
2022/09/12 09:22:38;;;;;;;13.68;6.95;;;;;;;;;;7379294;19;20015;-71
2022/09/12 09:25:09;;;;;;;;;;;;;;;22.52;100.00;101642.16;7380397;19;20011;-71
2022/09/12 09:27:47;;;;;;;12.88;7.18;;;;;;;22.51;100.00;101640.41;7381460;19;19934;-72
2022/09/12 09:30:20;;;;;;;12.88;7.13;;;;;;;22.83;100.00;101640.53;7377503;19;20007;-73
2022/09/12 09:32:54;;;;;;;11.13;5.30;;;;;;;23.04;100.00;101630.19;7376585;19;20019;-71
2022/09/12 09:35:33;;;;;;;10.50;5.93;;;;;;;23.08;100.00;101626.50;7377173;19;20017;-72
2022/09/12 09:38:19;;;;;;;8.95;5.70;;;;;;;23.07;100.00;101630.97;7377356;19;20037;-71
2022/09/12 09:40:57;;;;;;;12.15;5.32;;;;;;;23.02;100.00;101624.00;7378510;19;20011;-71
2022/09/12 09:43:30;;;;;;;11.50;5.78;;;;;;;23.00;100.00;101617.81;7378195;19;20025;-71
2022/09/12 09:46:00;;;;;;;12.50;5.83;;;;;;;23.39;100.00;101613.19;7381239;19;20018;-75
2022/09/12 09:48:33;;;;;;;11.10;5.68;;;;;;;23.57;100.00;101611.84;7378002;19;20015;-74
2022/09/12 09:51:05;;;;;;;9.15;4.75;;;;;;;23.47;100.00;101606.69;7376217;19;20029;-73
2022/09/12 09:53:40;;;;;;;9.70;5.65;;;;;;;23.70;100.00;101605.19;7375284;19;20010;-74
2022/09/12 09:56:17;;;;;;;8.75;5.18;;;;;;;23.91;100.00;101606.38;7380346;19;20010;-74
2022/09/12 09:58:54;;;;;;;10.90;5.20;;;;;;;23.82;100.00;101612.00;7378090;19;20018;-74
2022/09/12 10:01:24;;;;;;;9.20;4.93;;;;;;;23.28;100.00;101604.56;7379127;19;20030;-74
2022/09/12 10:03:55;;;;;;;11.73;5.10;;;;;;;23.59;100.00;101599.28;7378157;19;20511;-74
2022/09/12 10:06:29;;;;;;;10.48;4.78;;;;;;;23.88;100.00;101595.75;7378619;19;20013;-74
2022/09/12 10:09:24;;;;;;;8.43;4.60;;;;;;;23.83;100.00;101597.69;7376428;19;20019;-73
2022/09/12 10:11:55;;;;;;;6.70;3.85;;;;;;;23.50;99.72;101597.72;7376633;19;20031;-71
2022/09/12 10:14:42;;;;;;;8.90;4.80;;;;;;;23.33;100.00;101595.50;7377446;19;20186;-72
2022/09/12 10:17:30;;;;;;;8.95;4.60;;;;;;;23.50;100.00;101597.72;7374796;19;20086;-71
2022/09/12 10:20:03;;;;;;;8.40;4.53;;;;;;;23.45;100.00;101583.56;7380285;19;20058;-71
2022/09/12 10:22:50;;;;;;;7.80;4.90;;;;;;;23.05;100.00;101581.97;7376681;19;20012;-71
2022/09/12 10:25:21;;;;;;;9.15;4.72;;;;;;;22.80;100.00;101580.91;7380364;19;20006;-73
2022/09/12 10:27:57;;;;;;;8.27;4.55;;;;;;;22.72;100.00;101577.50;7388657;19;20014;-72
2022/09/12 10:30:30;;;;;;;8.75;4.25;;;;;;;22.98;100.00;101567.00;7384618;19;20018;-72
2022/09/12 10:33:09;;;;;;;9.00;5.10;;;;;;;22.71;100.00;101571.28;7384615;19;20006;-71
2022/09/12 10:35:50;;;;;;;8.27;4.50;;;;;;;23.12;100.00;101572.88;7384174;19;20017;-72
2022/09/12 10:38:25;;;;;;;9.13;5.07;;;;;;;23.04;100.00;101580.22;7383416;19;20018;-72
2022/09/12 10:41:02;;;;;;;7.65;4.53;;;;;;;23.27;100.00;101582.28;7384369;19;20015;-71
2022/09/12 10:43:37;;;;;;;8.73;5.78;;;;;;;23.32;100.00;101584.84;7385390;19;20022;-72
2022/09/12 10:46:33;;;;;;;10.45;5.65;;;;;;;23.11;100.00;101580.94;7385040;19;20039;-72
2022/09/12 10:49:36;;;;;;;9.80;4.95;;;;;;;23.51;100.00;101586.06;7384608;19;20014;-71
2022/09/12 10:52:22;;;;;;;10.60;5.65;;;;;;;23.40;100.00;101572.13;7380749;19;20017;-71
2022/09/12 10:54:52;;;;;;;8.55;4.93;;;;;;;23.58;100.00;101568.94;7383734;19;20325;-72
2022/09/12 10:57:52;;;;;;;7.75;4.75;;;;;;;24.02;100.00;101575.63;7383197;19;20015;-74
2022/09/12 11:00:26;;;;;;;12.68;5.85;;;;;;;23.77;100.00;101574.63;7385118;19;20006;-76
2022/09/12 11:03:12;;;;;;;11.40;5.95;;;;;;;24.13;100.00;101580.66;7384204;19;20026;-75
2022/09/12 11:05:54;;;;;;;12.48;5.32;;;;;;;24.43;100.00;101569.00;7382568;19;20017;-75
2022/09/12 11:08:52;;;;;;;8.95;4.75;;;;;;;24.77;99.33;101570.56;7384963;19;20446;-75
2022/09/12 11:11:41;;;;;;;8.95;5.43;;;;;;;24.54;100.00;101571.31;7384371;19;20134;-75
2022/09/12 11:14:41;;;;;;;9.77;5.72;;;;;;;24.37;98.28;101558.47;7382915;19;20011;-75
2022/09/12 11:17:24;;;;;;;9.82;5.13;;;;;;;24.93;95.24;101563.72;7384327;19;20007;-75
2022/09/12 11:20:04;;;;;;;;;;;;;;;25.07;96.55;101566.81;7383775;19;20014;-75
2022/09/12 11:22:54;;;;;;;9.00;5.32;;;;;;;24.83;94.11;101558.72;7381515;19;20520;-75
2022/09/12 11:25:33;;;;;;;10.10;5.03;;;;;;;24.85;95.38;101560.44;7383210;19;20025;-76
2022/09/12 11:28:25;;;;;;;10.13;5.53;;;;;;;24.99;94.36;101552.78;7383971;19;20007;-75
2022/09/12 11:31:13;;;;;;;7.65;4.20;;;;;;;25.17;96.78;101555.75;7384139;19;20015;-74
2022/09/12 11:33:45;;;;;;;7.68;4.35;;;;;;;25.00;93.97;101551.84;7379747;19;20014;-74
2022/09/12 11:36:31;;;;;;;8.30;4.53;;;;;;;24.97;93.17;101562.69;7381682;19;20011;-74
2022/09/12 11:39:09;;;;;;;6.72;3.78;;;;;;;25.10;93.95;101561.31;7383781;19;20311;-75
2022/09/12 11:41:42;;;;;;;7.97;4.75;;;;;;;25.00;91.68;101557.22;7382271;19;20035;-76